Página principal
METAR-TAF:

METAR-TAF

Aeroportos :

Ponta Delgada, Açores, Portugal

Aeroporto João Paulo II

latitude: 37-44N, longitude: 025-42W, altura: 71 m

Observação actual do tempo

O boletim foi feito há 24 minutos, às 23:00 UTC
Vento 3 kt de noroeste
Temperatura 17°C
Humidade 77%
Pressão 1033 hPa
Visibilidade 10 km ou mais
Nuvens fragmentadasa uma altura de 2000 ft

METAR: LPPD 122300Z 32003KT 9999 BKN020 17/13 Q1033

Hora: 22:24 (23:24 UTC)

Previsão

O boletim foi feito há 6 horas e 24 minutos, às 17:00 UTC
Previsão válida de 12 às 18 UTC a 13 às 18 UTC
Vento 5 kt com direcção variável
Visibilidade 10 km ou mais
Poucas nuvensa uma altura de 1500 ft
Nuvens fragmentadasa uma altura de 3000 ft
Temporariamente
de 12 às 21 UTC a 13 às 09 UTC
Nuvens fragmentadasa uma altura de 800 ft
Tornando-se
de 13 às 12 UTC a 13 às 15 UTC
Vento 7 kt de nor-noroeste

TAF: LPPD 121700Z 1218/1318 VRB05KT 9999 FEW015 BKN030 TEMPO 1221/1309 BKN008 BECMG 1312/1315 33007KT

Observações e previsões do tempo de mais de 4000 aeroportos (mensagens METAR e TAF).

As estações disponíveis são os pontos amarelos e vermelhos sobre o mapa.

Mova o rato sobre o mapa para ver o nome da estação.

Depois clique no ponto para visualizar as observações e previsões meteorológicas.

Para alterar o mapa : clique nos botões verdes com uma cruz preta para aumentar o zoom; no botão verde com uma pitada de zoom; ou nas setas verdes para mapas adjacentes.


METAR-TAF: